createdAt,value
2019-05-07T00:02:42.824Z,5.11
2019-05-07T00:05:39.612Z,5.05
2019-05-07T00:08:35.275Z,5.00
2019-05-07T00:11:33.093Z,4.95
2019-05-07T00:14:29.658Z,4.90
2019-05-07T00:17:26.232Z,4.87
2019-05-07T00:20:23.177Z,4.83
2019-05-07T00:23:18.600Z,4.78
2019-05-07T00:26:15.542Z,4.74
2019-05-07T00:29:13.048Z,4.70
2019-05-07T00:32:09.474Z,4.66
2019-05-07T00:35:12.971Z,4.58
2019-05-07T00:38:22.660Z,4.53
2019-05-07T00:41:24.306Z,4.49
2019-05-07T00:44:21.982Z,4.43
2019-05-07T00:47:17.392Z,4.41
2019-05-07T00:50:15.688Z,4.38
2019-05-07T00:53:13.253Z,4.34
2019-05-07T00:56:09.780Z,4.30
2019-05-07T00:59:06.429Z,4.29
2019-05-07T01:02:03.249Z,4.24
2019-05-07T01:04:59.848Z,4.21
2019-05-07T01:07:57.386Z,4.19
2019-05-07T01:10:57.709Z,4.16
2019-05-07T01:13:53.422Z,4.14
2019-05-07T01:16:49.805Z,4.10
2019-05-07T01:19:53.696Z,4.05
2019-05-07T01:22:54.452Z,4.01
2019-05-07T01:25:48.794Z,3.95
2019-05-07T01:28:58.178Z,3.91
2019-05-07T01:32:00.569Z,3.89
2019-05-07T01:35:05.599Z,3.85
2019-05-07T01:38:03.109Z,3.80
2019-05-07T01:40:57.943Z,3.74
2019-05-07T01:43:55.016Z,3.68
2019-05-07T01:46:52.905Z,3.65
2019-05-07T01:49:48.541Z,3.60
2019-05-07T01:52:45.386Z,3.57
2019-05-07T01:55:42.721Z,3.52
2019-05-07T01:58:37.057Z,3.48
2019-05-07T02:01:35.616Z,3.46
2019-05-07T02:04:42.716Z,3.43
2019-05-07T02:07:52.678Z,3.40
2019-05-07T02:10:56.959Z,3.37
2019-05-07T02:13:54.625Z,3.34
2019-05-07T02:16:50.476Z,3.27
2019-05-07T02:19:48.007Z,3.24
2019-05-07T02:22:44.575Z,3.21
2019-05-07T02:25:41.968Z,3.13
2019-05-07T02:28:37.921Z,3.08
2019-05-07T02:31:34.586Z,3.09
2019-05-07T02:34:34.253Z,3.06
2019-05-07T02:37:48.315Z,3.02
2019-05-07T02:40:53.763Z,2.96
2019-05-07T02:43:50.278Z,2.86
2019-05-07T02:47:04.194Z,2.86
2019-05-07T02:50:13.077Z,2.79
2019-05-07T02:53:22.562Z,2.74
2019-05-07T02:56:27.065Z,2.72
2019-05-07T02:59:33.644Z,2.66
2019-05-07T03:02:28.519Z,2.63
2019-05-07T03:05:24.642Z,2.65
2019-05-07T03:08:26.938Z,2.64
2019-05-07T03:11:18.139Z,2.62
2019-05-07T03:14:23.653Z,2.62
2019-05-07T03:17:38.307Z,2.58
2019-05-07T03:20:39.089Z,2.54
2019-05-07T03:23:37.182Z,2.48
2019-05-07T03:26:36.083Z,2.46
2019-05-07T03:29:33.527Z,2.41
2019-05-07T03:32:47.497Z,2.39
2019-05-07T03:35:46.464Z,2.36
2019-05-07T03:38:39.131Z,2.35
2019-05-07T03:41:48.052Z,2.33
2019-05-07T03:44:54.689Z,2.28
2019-05-07T03:47:54.306Z,2.26
2019-05-07T03:50:52.833Z,2.25
2019-05-07T03:53:46.324Z,2.25
2019-05-07T03:56:43.659Z,2.25
2019-05-07T03:59:43.054Z,2.26
2019-05-07T04:02:38.113Z,2.25
2019-05-07T04:05:35.845Z,2.18
2019-05-07T04:08:33.489Z,2.10
2019-05-07T04:11:30.154Z,2.10
2019-05-07T04:14:28.047Z,2.14
2019-05-07T04:17:27.014Z,2.16
2019-05-07T04:20:20.268Z,2.13
2019-05-07T04:23:17.159Z,2.13
2019-05-07T04:26:23.251Z,2.11
2019-05-07T04:29:23.126Z,2.14
2019-05-07T04:32:18.758Z,2.22
2019-05-07T04:35:33.492Z,2.21
2019-05-07T04:38:26.702Z,2.22
2019-05-07T04:41:23.777Z,2.26
2019-05-07T04:44:23.251Z,2.20
2019-05-07T04:47:32.816Z,2.16
2019-05-07T04:50:38.276Z,2.09
2019-05-07T04:53:17.541Z,2.04
2019-05-07T04:56:14.061Z,2.28
2019-05-07T04:59:12.957Z,2.28
2019-05-07T05:02:14.928Z,2.32
2019-05-07T05:05:12.848Z,2.39
2019-05-07T05:08:13.377Z,2.43
2019-05-07T05:11:13.065Z,2.50
2019-05-07T05:14:13.675Z,2.57
2019-05-07T05:17:08.402Z,2.67
2019-05-07T05:20:04.722Z,2.66
2019-05-07T05:23:15.210Z,2.66
2019-05-07T05:26:12.612Z,2.75
2019-05-07T05:29:08.782Z,2.79
2019-05-07T05:32:06.366Z,2.91
2019-05-07T05:35:03.296Z,3.06
2019-05-07T05:37:58.288Z,3.11
2019-05-07T05:40:54.541Z,3.18
2019-05-07T05:44:02.472Z,3.38
2019-05-07T05:46:58.907Z,3.38
2019-05-07T05:49:54.801Z,3.45
2019-05-07T05:52:58.024Z,3.53
2019-05-07T05:55:54.226Z,3.65
2019-05-07T05:58:57.243Z,3.76
2019-05-07T06:02:06.745Z,3.88
2019-05-07T06:05:29.527Z,3.98
2019-05-07T06:08:32.564Z,4.09
2019-05-07T06:11:52.069Z,4.22
2019-05-07T06:14:55.783Z,4.34
2019-05-07T06:17:58.472Z,4.47
2019-05-07T06:21:07.565Z,4.55
2019-05-07T06:24:07.333Z,4.63
2019-05-07T06:27:04.137Z,4.71
2019-05-07T06:30:02.884Z,4.82
2019-05-07T06:32:58.002Z,4.96
2019-05-07T06:35:53.861Z,5.07
2019-05-07T06:38:58.729Z,5.19
2019-05-07T06:42:07.483Z,5.31
2019-05-07T06:45:18.833Z,5.43
2019-05-07T06:48:15.421Z,5.57
2019-05-07T06:51:12.589Z,5.72
2019-05-07T06:54:08.527Z,5.82
2019-05-07T06:57:04.178Z,5.94
2019-05-07T07:00:08.975Z,6.04
2019-05-07T07:03:12.735Z,6.15
2019-05-07T07:06:22.946Z,6.26
2019-05-07T07:09:36.875Z,6.41
2019-05-07T07:12:33.726Z,6.56
2019-05-07T07:15:32.084Z,6.65
2019-05-07T07:18:47.604Z,6.76
2019-05-07T07:21:47.910Z,6.86
2019-05-07T07:24:57.336Z,6.93
2019-05-07T07:27:53.310Z,6.99
2019-05-07T07:31:13.796Z,7.09
2019-05-07T07:34:13.026Z,7.29
2019-05-07T07:37:18.181Z,7.40
2019-05-07T07:40:42.203Z,7.48
2019-05-07T07:43:37.134Z,7.53
2019-05-07T07:46:34.163Z,7.63
2019-05-07T07:49:32.933Z,7.78
2019-05-07T07:52:26.405Z,7.90
2019-05-07T07:55:24.074Z,8.00
2019-05-07T07:58:34.278Z,8.10
2019-05-07T08:01:33.865Z,8.21
2019-05-07T08:04:32.166Z,8.35
2019-05-07T08:07:27.426Z,8.52
2019-05-07T08:10:23.997Z,8.69
2019-05-07T08:13:19.266Z,8.76
2019-05-07T08:16:16.969Z,8.81
2019-05-07T08:19:21.601Z,8.86
2019-05-07T08:22:12.053Z,8.91
2019-05-07T08:25:08.417Z,9.06
2019-05-07T08:28:04.111Z,9.06
2019-05-07T08:31:08.811Z,9.05
2019-05-07T08:34:09.196Z,9.11
2019-05-07T08:37:05.764Z,9.23
2019-05-07T08:40:06.571Z,9.32
2019-05-07T08:43:03.834Z,9.38
2019-05-07T08:46:07.662Z,9.48
2019-05-07T08:49:03.438Z,9.62
2019-05-07T08:52:11.986Z,9.66
2019-05-07T08:55:09.388Z,9.65
2019-05-07T08:58:06.264Z,9.65
2019-05-07T09:01:03.241Z,9.69
2019-05-07T09:03:58.783Z,9.75
2019-05-07T09:06:54.693Z,9.76
2019-05-07T09:09:52.380Z,9.78
2019-05-07T09:12:57.185Z,9.84
2019-05-07T09:15:56.248Z,9.90
2019-05-07T09:18:52.876Z,9.94
2019-05-07T09:21:49.676Z,10.01
2019-05-07T09:24:47.163Z,9.99
2019-05-07T09:27:56.674Z,9.94
2019-05-07T09:31:14.386Z,9.89
2019-05-07T09:34:11.768Z,9.94
2019-05-07T09:37:07.875Z,10.22
2019-05-07T09:40:04.117Z,10.35
2019-05-07T09:43:02.642Z,10.47
2019-05-07T09:45:59.511Z,10.56
2019-05-07T09:48:57.058Z,10.55
2019-05-07T09:51:56.431Z,10.49
2019-05-07T09:54:53.759Z,10.51
2019-05-07T09:57:52.794Z,10.62
2019-05-07T10:00:47.515Z,10.72
2019-05-07T10:03:44.776Z,10.75
2019-05-07T10:06:42.463Z,10.75
2019-05-07T10:09:39.123Z,10.79
2019-05-07T10:12:42.512Z,10.90
2019-05-07T10:15:41.824Z,11.02
2019-05-07T10:18:37.153Z,11.04
2019-05-07T10:21:35.151Z,11.04
2019-05-07T10:24:32.509Z,11.04
2019-05-07T10:27:32.474Z,11.02
2019-05-07T10:30:27.021Z,11.05
2019-05-07T10:33:24.525Z,11.09
2019-05-07T10:36:22.866Z,11.14
2019-05-07T10:39:19.058Z,11.18
2019-05-07T10:42:19.488Z,11.28
2019-05-07T10:45:22.846Z,11.49
2019-05-07T10:48:34.152Z,11.77
2019-05-07T10:51:32.140Z,11.89
2019-05-07T10:54:28.735Z,12.08
2019-05-07T10:57:26.093Z,12.12
2019-05-07T11:00:23.326Z,12.13
2019-05-07T11:03:21.953Z,12.33
2019-05-07T11:06:17.873Z,12.49
2019-05-07T11:09:15.170Z,12.44
2019-05-07T11:12:12.679Z,12.46
2019-05-07T11:15:08.139Z,12.64
2019-05-07T11:18:27.047Z,13.01
2019-05-07T11:21:24.353Z,13.26
2019-05-07T11:24:22.660Z,13.27
2019-05-07T11:27:19.981Z,13.28
2019-05-07T11:30:17.282Z,13.30
2019-05-07T11:33:13.594Z,13.37
2019-05-07T11:36:11.817Z,13.43
2019-05-07T11:39:07.508Z,13.58
2019-05-07T11:42:25.390Z,13.52
2019-05-07T11:45:26.304Z,13.48
2019-05-07T11:48:23.717Z,13.59
2019-05-07T11:51:39.552Z,13.68
2019-05-07T11:54:35.768Z,13.63
2019-05-07T11:57:34.084Z,13.82
2019-05-07T12:00:38.824Z,13.99
2019-05-07T12:03:35.045Z,14.05
2019-05-07T12:06:32.336Z,14.07
2019-05-07T12:09:29.634Z,14.08
2019-05-07T12:12:27.122Z,14.16
2019-05-07T12:15:23.335Z,14.24
2019-05-07T12:18:22.744Z,14.14
2019-05-07T12:21:21.986Z,14.02
2019-05-07T12:24:16.678Z,13.92
2019-05-07T12:27:14.542Z,14.06
2019-05-07T12:30:12.198Z,14.29
2019-05-07T12:33:19.476Z,14.46
2019-05-07T12:36:15.211Z,14.37
2019-05-07T12:39:13.673Z,14.50
2019-05-07T12:42:12.209Z,14.70
2019-05-07T12:45:09.703Z,14.89
2019-05-07T12:48:11.323Z,14.85
2019-05-07T12:51:05.478Z,14.71
2019-05-07T12:54:07.109Z,14.38
2019-05-07T12:57:03.345Z,14.37
2019-05-07T13:00:02.098Z,14.74
2019-05-07T13:03:05.037Z,14.97
2019-05-07T13:06:02.557Z,15.12
2019-05-07T13:08:59.972Z,15.25
2019-05-07T13:11:56.369Z,15.23
2019-05-07T13:14:53.847Z,15.03
2019-05-07T13:17:49.373Z,15.12
2019-05-07T13:20:48.880Z,15.21
2019-05-07T13:23:44.017Z,15.39
2019-05-07T13:26:42.747Z,15.59
2019-05-07T13:29:39.878Z,15.61
2019-05-07T13:32:36.263Z,15.96
2019-05-07T13:35:33.647Z,15.97
2019-05-07T13:38:42.532Z,15.78
2019-05-07T13:41:53.506Z,15.63
2019-05-07T13:45:12.769Z,15.36
2019-05-07T13:48:16.805Z,15.29
2019-05-07T13:51:13.995Z,15.55
2019-05-07T13:54:12.939Z,15.72
2019-05-07T13:57:08.875Z,15.63
2019-05-07T14:00:07.260Z,15.53
2019-05-07T14:03:03.835Z,15.60
2019-05-07T14:06:01.719Z,16.05
2019-05-07T14:08:58.634Z,16.33
2019-05-07T14:11:55.846Z,16.20
2019-05-07T14:14:53.435Z,15.92
2019-05-07T14:17:49.862Z,15.55
2019-05-07T14:20:47.170Z,15.27
2019-05-07T14:23:47.922Z,15.04
2019-05-07T14:26:45.481Z,14.97
2019-05-07T14:29:43.911Z,15.03
2019-05-07T14:33:06.127Z,15.21
2019-05-07T14:36:12.113Z,15.69
2019-05-07T14:39:08.349Z,16.07
2019-05-07T14:42:05.516Z,16.40
2019-05-07T14:45:01.792Z,16.33
2019-05-07T14:47:58.893Z,16.30
2019-05-07T14:50:56.628Z,16.32
2019-05-07T14:53:54.368Z,16.43
2019-05-07T14:56:53.833Z,16.89
2019-05-07T14:59:52.376Z,17.02
2019-05-07T15:02:48.834Z,17.27
2019-05-07T15:05:45.396Z,18.05
2019-05-07T15:08:42.982Z,18.53
2019-05-07T15:11:42.337Z,18.63
2019-05-07T15:14:35.965Z,18.36
2019-05-07T15:17:41.948Z,18.30
2019-05-07T15:20:38.671Z,18.50
2019-05-07T15:23:42.580Z,17.92
2019-05-07T15:26:39.290Z,17.78
2019-05-07T15:29:36.917Z,18.25
2019-05-07T15:32:36.247Z,18.44
2019-05-07T15:35:32.474Z,18.60
2019-05-07T15:38:29.828Z,18.82
2019-05-07T15:41:26.318Z,18.89
2019-05-07T15:44:24.458Z,18.85
2019-05-07T15:47:25.435Z,18.86
2019-05-07T15:50:23.156Z,18.92
2019-05-07T15:53:37.961Z,18.96
2019-05-07T15:56:34.302Z,18.94
2019-05-07T15:59:34.889Z,18.52
2019-05-07T16:02:41.539Z,18.42
2019-05-07T16:05:37.803Z,18.34
2019-05-07T16:08:35.283Z,18.30
2019-05-07T16:11:32.700Z,17.95
2019-05-07T16:14:35.162Z,17.78
2019-05-07T16:17:42.869Z,17.68
2019-05-07T16:20:39.778Z,17.40
2019-05-07T16:23:36.882Z,17.08
2019-05-07T16:26:33.234Z,16.75
2019-05-07T16:29:33.697Z,16.40
2019-05-07T16:32:27.582Z,15.91
2019-05-07T16:35:24.851Z,15.68
2019-05-07T16:38:23.374Z,15.62
2019-05-07T16:41:22.372Z,15.44
2019-05-07T16:44:19.350Z,15.31
2019-05-07T16:47:15.469Z,15.23
2019-05-07T16:50:13.247Z,15.17
2019-05-07T16:53:08.969Z,15.05
2019-05-07T16:56:07.324Z,14.84
2019-05-07T16:59:07.903Z,14.77
2019-05-07T17:02:06.277Z,14.68
2019-05-07T17:05:22.922Z,14.51
2019-05-07T17:08:29.055Z,14.43
2019-05-07T17:11:27.757Z,14.30
2019-05-07T17:14:24.242Z,14.26
2019-05-07T17:17:22.395Z,14.09
2019-05-07T17:20:19.124Z,13.98
2019-05-07T17:23:15.647Z,13.90
2019-05-07T17:26:13.269Z,13.83
2019-05-07T17:29:09.576Z,13.72
2019-05-07T17:32:07.989Z,13.64
2019-05-07T17:35:06.753Z,13.47
2019-05-07T17:38:08.991Z,13.45
2019-05-07T17:41:10.798Z,13.31
2019-05-07T17:43:59.249Z,13.21
2019-05-07T17:47:01.841Z,13.17
2019-05-07T17:49:57.097Z,13.10
2019-05-07T17:52:54.747Z,13.04
2019-05-07T17:55:53.435Z,12.98
2019-05-07T17:58:52.078Z,12.89
2019-05-07T18:02:04.340Z,12.79
2019-05-07T18:05:02.833Z,12.67
2019-05-07T18:08:02.181Z,12.57
2019-05-07T18:11:02.031Z,12.45
2019-05-07T18:13:57.140Z,12.39
2019-05-07T18:17:22.010Z,12.32
2019-05-07T18:20:18.929Z,12.22
2019-05-07T18:23:17.091Z,12.14
2019-05-07T18:26:26.433Z,12.05
2019-05-07T18:29:08.868Z,11.97
2019-05-07T18:32:07.791Z,11.91
2019-05-07T18:35:05.321Z,11.81
2019-05-07T18:38:03.777Z,11.74
2019-05-07T18:41:02.366Z,11.66
2019-05-07T18:44:12.087Z,11.59
2019-05-07T18:46:56.296Z,11.52
2019-05-07T18:49:52.520Z,11.43
2019-05-07T18:52:52.081Z,11.37
2019-05-07T18:55:46.336Z,11.28
2019-05-07T18:58:42.839Z,11.19
2019-05-07T19:01:39.376Z,11.11
2019-05-07T19:04:42.253Z,11.01
2019-05-07T19:07:38.947Z,10.90
2019-05-07T19:10:37.134Z,10.82
2019-05-07T19:13:35.635Z,10.72
2019-05-07T19:16:36.469Z,10.62
2019-05-07T19:19:33.651Z,10.55
2019-05-07T19:22:29.849Z,10.46
2019-05-07T19:25:28.370Z,10.38
2019-05-07T19:28:23.917Z,10.34
2019-05-07T19:31:22.015Z,10.27
2019-05-07T19:34:21.830Z,10.22
2019-05-07T19:37:17.250Z,10.14
2019-05-07T19:40:15.805Z,10.04
2019-05-07T19:43:11.995Z,9.95
2019-05-07T19:46:08.825Z,9.88
2019-05-07T19:49:07.122Z,9.81
2019-05-07T19:52:02.893Z,9.71
2019-05-07T19:55:04.709Z,9.61
2019-05-07T19:58:04.161Z,9.54
2019-05-07T20:01:01.442Z,9.49
2019-05-07T20:03:58.776Z,9.39
2019-05-07T20:06:56.230Z,9.34
2019-05-07T20:09:52.552Z,9.30
2019-05-07T20:12:53.165Z,9.26
2019-05-07T20:15:49.355Z,9.21
2019-05-07T20:18:46.497Z,9.18
2019-05-07T20:21:42.659Z,9.11
2019-05-07T20:24:46.832Z,9.05
2019-05-07T20:27:41.336Z,8.96
2019-05-07T20:30:41.792Z,8.90
2019-05-07T20:33:36.400Z,8.87
2019-05-07T20:36:33.791Z,8.84
2019-05-07T20:39:33.070Z,8.76
2019-05-07T20:42:29.072Z,8.70
2019-05-07T20:45:28.167Z,8.64
2019-05-07T20:48:24.896Z,8.63
2019-05-07T20:51:23.144Z,8.57
2019-05-07T20:54:33.471Z,8.53
2019-05-07T20:57:42.836Z,8.51
2019-05-07T21:00:39.335Z,8.50
2019-05-07T21:03:35.389Z,8.47
2019-05-07T21:06:33.840Z,8.43
2019-05-07T21:09:32.804Z,8.39
2019-05-07T21:12:28.536Z,8.36
2019-05-07T21:15:26.865Z,8.33
2019-05-07T21:18:23.523Z,8.26
2019-05-07T21:21:21.852Z,8.21
2019-05-07T21:24:16.283Z,8.16
2019-05-07T21:27:13.130Z,8.14
2019-05-07T21:30:10.443Z,8.09
2019-05-07T21:33:06.696Z,8.02
2019-05-07T21:36:03.852Z,7.97
2019-05-07T21:39:02.064Z,7.94
2019-05-07T21:41:58.227Z,7.94
2019-05-07T21:44:54.967Z,7.89
2019-05-07T21:47:52.070Z,7.85
2019-05-07T21:50:46.765Z,7.82
2019-05-07T21:53:45.832Z,7.79
2019-05-07T21:56:58.464Z,7.77
2019-05-07T21:59:55.001Z,7.77
2019-05-07T22:02:52.439Z,7.75
2019-05-07T22:05:47.821Z,7.71
2019-05-07T22:08:43.488Z,7.68
2019-05-07T22:11:42.600Z,7.68
2019-05-07T22:14:36.737Z,7.67
2019-05-07T22:17:34.212Z,7.67
2019-05-07T22:20:31.455Z,7.68
2019-05-07T22:23:32.257Z,7.66
2019-05-07T22:26:32.371Z,7.56
2019-05-07T22:29:29.121Z,7.44
2019-05-07T22:32:52.798Z,7.31
2019-05-07T22:35:52.281Z,7.23
2019-05-07T22:38:47.314Z,7.12
2019-05-07T22:41:43.914Z,7.05
2019-05-07T22:44:48.633Z,7.01
2019-05-07T22:47:44.045Z,7.01
2019-05-07T22:50:42.118Z,6.99
2019-05-07T22:53:39.140Z,6.99
2019-05-07T22:56:38.746Z,6.97
2019-05-07T22:59:34.834Z,6.99
2019-05-07T23:02:32.151Z,7.01
2019-05-07T23:05:35.924Z,7.02
2019-05-07T23:08:33.511Z,7.00
2019-05-07T23:11:34.448Z,6.97
2019-05-07T23:14:29.984Z,6.92
2019-05-07T23:17:27.724Z,6.86
2019-05-07T23:20:24.446Z,6.89
2019-05-07T23:23:33.598Z,6.91
2019-05-07T23:26:48.146Z,6.97
2019-05-07T23:29:34.676Z,7.00
2019-05-07T23:32:37.650Z,6.96
2019-05-07T23:35:33.451Z,6.90
2019-05-07T23:38:31.913Z,6.87
2019-05-07T23:41:42.650Z,6.80
2019-05-07T23:44:42.018Z,6.79
2019-05-07T23:47:37.640Z,6.80
2019-05-07T23:50:36.167Z,6.75
2019-05-07T23:53:31.696Z,6.77
2019-05-07T23:56:29.568Z,6.72
2019-05-07T23:59:25.204Z,6.67
